Time,TemperatureF,DewpointF,PressureIn,WindDirection,WindDirectionDegrees,WindSpeedMPH,WindSpeedGustMPH,Humidity,HourlyPrecipIn,Conditions,Clouds,dailyrainin,SoftwareType,DateUTC
2013-04-10 00:02:00,16.0,14.0,30.02,WNW,296,4.0,9.0,90,0.00,,,0.07,,2013-04-10 06:02:00,
2013-04-10 00:12:00,15.0,13.0,30.02,NW,313,5.0,8.0,90,0.00,,,0.07,,2013-04-10 06:12:00,
2013-04-10 00:22:00,15.0,13.0,30.02,NW,313,5.0,8.0,90,0.00,,,0.07,,2013-04-10 06:22:00,
2013-04-10 00:32:00,15.0,13.0,30.02,NW,324,2.0,8.0,90,0.00,,,0.07,,2013-04-10 06:32:00,
2013-04-10 00:42:00,15.0,13.0,30.02,NW,324,2.0,8.0,90,0.00,,,0.07,,2013-04-10 06:42:00,
2013-04-10 00:52:00,14.0,12.0,30.02,NW,311,4.0,9.0,90,0.00,,,0.07,,2013-04-10 06:52:00,
2013-04-10 01:02:00,14.0,12.0,30.03,NW,315,6.0,10.0,90,0.00,,,0.07,,2013-04-10 07:02:00,
2013-04-10 01:12:00,14.0,12.0,30.03,NW,315,6.0,10.0,90,0.00,,,0.07,,2013-04-10 07:12:00,
2013-04-10 01:22:00,14.0,12.0,30.03,NW,305,5.0,10.0,91,0.00,,,0.07,,2013-04-10 07:22:00,
2013-04-10 01:32:00,14.0,12.0,30.04,NW,316,6.0,11.0,91,0.00,,,0.07,,2013-04-10 07:32:00,
2013-04-10 01:42:00,14.0,12.0,30.04,NW,316,6.0,11.0,91,0.00,,,0.07,,2013-04-10 07:42:00,
2013-04-10 01:52:00,14.0,12.0,30.05,NNW,336,6.0,11.0,91,0.00,,,0.07,,2013-04-10 07:52:00,
2013-04-10 02:02:00,14.0,12.0,30.05,NNW,329,4.0,9.0,91,0.00,,,0.07,,2013-04-10 08:02:00,
2013-04-10 02:12:00,14.0,12.0,30.05,NNW,329,4.0,9.0,91,0.00,,,0.07,,2013-04-10 08:12:00,
2013-04-10 02:22:00,13.0,11.0,30.05,NW,317,1.0,6.0,90,0.00,,,0.07,,2013-04-10 08:22:00,
2013-04-10 02:32:00,13.0,11.0,30.04,NW,324,0.0,4.0,90,0.00,,,0.07,,2013-04-10 08:32:00,
2013-04-10 02:42:00,13.0,11.0,30.04,NW,324,0.0,4.0,90,0.00,,,0.07,,2013-04-10 08:42:00,
2013-04-10 02:51:00,13.0,11.0,30.04,NW,324,0.0,0.0,90,0.00,,,0.07,,2013-04-10 08:51:00,
2013-04-10 03:02:00,13.0,11.0,30.04,NW,324,0.0,0.0,90,0.00,,,0.07,,2013-04-10 09:02:00,
2013-04-10 03:12:00,13.0,11.0,30.04,NNW,329,4.0,7.0,90,0.00,,,0.07,,2013-04-10 09:12:00,
2013-04-10 03:22:00,13.0,11.0,30.04,NNW,329,4.0,7.0,90,0.00,,,0.07,,2013-04-10 09:22:00,
2013-04-10 03:32:00,13.0,11.0,30.04,North,360,5.0,9.0,90,0.00,,,0.07,,2013-04-10 09:32:00,
2013-04-10 03:42:00,13.0,11.0,30.04,North,360,5.0,9.0,90,0.00,,,0.07,,2013-04-10 09:42:00,
2013-04-10 03:52:00,13.0,11.0,30.05,North,355,3.0,9.0,90,0.00,,,0.07,,2013-04-10 09:52:00,
2013-04-10 04:02:00,13.0,11.0,30.06,NW,318,4.0,7.0,90,0.00,,,0.07,,2013-04-10 10:02:00,
2013-04-10 04:12:00,12.0,10.0,30.06,NW,319,4.0,8.0,90,0.00,,,0.07,,2013-04-10 10:12:00,
2013-04-10 04:23:00,12.0,10.0,30.06,NW,319,4.0,8.0,90,0.00,,,0.07,,2013-04-10 10:23:00,
2013-04-10 04:33:00,12.0,10.0,30.06,NNW,338,5.0,8.0,90,0.00,,,0.07,,2013-04-10 10:33:00,
2013-04-10 04:42:00,12.0,10.0,30.06,NNW,338,5.0,8.0,90,0.00,,,0.07,,2013-04-10 10:42:00,
2013-04-10 04:52:00,12.0,10.0,30.07,NNW,337,3.0,7.0,90,0.00,,,0.07,,2013-04-10 10:52:00,
2013-04-10 05:02:00,12.0,10.0,30.07,NW,317,2.0,6.0,90,0.00,,,0.07,,2013-04-10 11:02:00,
2013-04-10 05:12:00,12.0,10.0,30.07,NW,317,2.0,6.0,90,0.00,,,0.07,,2013-04-10 11:12:00,
2013-04-10 05:22:00,11.0,9.0,30.07,NNW,336,2.0,6.0,90,0.00,,,0.07,,2013-04-10 11:22:00,
2013-04-10 05:32:00,11.0,9.0,30.07,NW,318,3.0,6.0,90,0.00,,,0.07,,2013-04-10 11:32:00,
2013-04-10 05:42:00,11.0,9.0,30.07,NW,318,3.0,6.0,90,0.00,,,0.07,,2013-04-10 11:42:00,
2013-04-10 05:52:00,11.0,9.0,30.07,NNW,327,2.0,6.0,90,0.00,,,0.07,,2013-04-10 11:52:00,
2013-04-10 06:02:00,11.0,9.0,30.06,NNW,327,0.0,0.0,90,0.00,,,0.07,,2013-04-10 12:02:00,
2013-04-10 06:12:00,11.0,9.0,30.06,NNW,327,0.0,0.0,90,0.00,,,0.07,,2013-04-10 12:12:00,
2013-04-10 06:22:00,11.0,8.0,30.06,NNW,327,0.0,0.0,89,0.00,,,0.07,,2013-04-10 12:22:00,
2013-04-10 06:32:00,11.0,8.0,30.06,NNW,327,0.0,0.0,89,0.00,,,0.07,,2013-04-10 12:32:00,
2013-04-10 06:42:00,11.0,8.0,30.06,NNW,327,0.0,0.0,89,0.00,,,0.07,,2013-04-10 12:42:00,
2013-04-10 06:52:00,10.0,7.0,30.06,NNW,327,0.0,0.0,88,0.00,,,0.07,,2013-04-10 12:52:00,
2013-04-10 07:02:00,10.0,7.0,30.06,NNW,327,0.0,0.0,88,0.00,,,0.07,,2013-04-10 13:02:00,
2013-04-10 07:12:00,10.0,7.0,30.06,NNW,327,0.0,0.0,88,0.00,,,0.07,,2013-04-10 13:12:00,
2013-04-10 07:22:00,10.0,7.0,30.06,NNW,327,0.0,0.0,88,0.00,,,0.07,,2013-04-10 13:22:00,
2013-04-10 07:42:00,9.0,6.0,30.07,NW,324,0.0,0.0,88,0.00,,,0.07,,2013-04-10 13:42:00,
2013-04-10 07:52:00,10.0,7.0,30.07,NW,317,4.0,6.0,89,0.00,,,0.07,,2013-04-10 13:52:00,
2013-04-10 08:02:00,10.0,8.0,30.08,NW,308,5.0,8.0,90,0.00,,,0.07,,2013-04-10 14:02:00,
2013-04-10 08:12:00,10.0,8.0,30.08,NW,308,5.0,8.0,90,0.00,,,0.07,,2013-04-10 14:12:00,
2013-04-10 08:22:00,11.0,9.0,30.08,NNW,344,4.0,9.0,90,0.00,,,0.07,,2013-04-10 14:22:00,
2013-04-10 08:32:00,12.0,10.0,30.09,NNW,340,1.0,8.0,90,0.00,,,0.07,,2013-04-10 14:32:00,
2013-04-10 08:42:00,12.0,10.0,30.09,NNW,340,1.0,8.0,90,0.00,,,0.07,,2013-04-10 14:42:00,
2013-04-10 08:52:00,12.0,9.0,30.09,NNW,337,3.0,7.0,89,0.00,,,0.07,,2013-04-10 14:52:00,
2013-04-10 09:02:00,13.0,10.0,30.09,NW,320,3.0,6.0,89,0.00,,,0.07,,2013-04-10 15:02:00,
2013-04-10 09:12:00,13.0,10.0,30.09,NW,320,3.0,6.0,89,0.00,,,0.07,,2013-04-10 15:12:00,
2013-04-10 09:22:00,13.0,10.0,30.09,NNW,338,1.0,7.0,89,0.00,,,0.07,,2013-04-10 15:22:00,
2013-04-10 09:32:00,14.0,11.0,30.09,North,360,3.0,7.0,88,0.00,,,0.07,,2013-04-10 15:32:00,
2013-04-10 09:42:00,14.0,11.0,30.09,North,360,3.0,7.0,88,0.00,,,0.07,,2013-04-10 15:42:00,
2013-04-10 09:52:00,15.0,12.0,30.10,NNW,338,4.0,9.0,87,0.00,,,0.07,,2013-04-10 15:52:00,
2013-04-10 10:02:00,14.0,10.0,30.10,NNW,344,3.0,7.0,85,0.00,,,0.07,,2013-04-10 16:02:00,
2013-04-10 10:12:00,14.0,10.0,30.10,NNW,344,3.0,7.0,85,0.00,,,0.07,,2013-04-10 16:12:00,
2013-04-10 10:22:00,15.0,12.0,30.10,North,5,4.0,9.0,86,0.00,,,0.07,,2013-04-10 16:22:00,
2013-04-10 10:32:00,16.0,12.0,30.10,NNE,26,4.0,8.0,84,0.00,,,0.07,,2013-04-10 16:32:00,
2013-04-10 10:42:00,16.0,12.0,30.10,NNE,26,4.0,8.0,84,0.00,,,0.07,,2013-04-10 16:42:00,
2013-04-10 10:52:00,16.0,11.0,30.10,WNW,292,2.0,8.0,81,0.00,,,0.07,,2013-04-10 16:52:00,
2013-04-10 11:02:00,17.0,12.0,30.11,NNW,340,3.0,6.0,81,0.00,,,0.07,,2013-04-10 17:02:00,
2013-04-10 11:12:00,20.0,14.0,30.11,NNW,339,0.0,4.0,76,0.00,,,0.07,,2013-04-10 17:12:00,
2013-04-10 11:22:00,20.0,14.0,30.11,NNW,339,0.0,4.0,76,0.00,,,0.07,,2013-04-10 17:22:00,
2013-04-10 11:42:00,19.0,13.0,30.11,NE,50,0.0,5.0,76,0.00,,,0.07,,2013-04-10 17:42:00,
2013-04-10 11:52:00,20.0,14.0,30.11,West,261,0.0,0.0,78,0.00,,,0.07,,2013-04-10 17:52:00,
2013-04-10 12:02:00,21.0,15.0,30.11,NE,41,0.0,6.0,78,0.00,,,0.07,,2013-04-10 18:02:00,
2013-04-10 12:12:00,21.0,15.0,30.11,NE,41,0.0,6.0,78,0.00,,,0.07,,2013-04-10 18:12:00,
2013-04-10 12:22:00,22.0,16.0,30.11,ESE,102,0.0,2.0,79,0.00,,,0.07,,2013-04-10 18:22:00,
2013-04-10 12:32:00,24.0,18.0,30.11,NNE,26,0.0,6.0,77,0.00,,,0.06,,2013-04-10 18:32:00,
2013-04-10 12:42:00,24.0,18.0,30.11,NNE,26,0.0,6.0,77,0.00,,,0.06,,2013-04-10 18:42:00,
2013-04-10 12:52:00,25.0,19.0,30.11,NNW,327,0.0,4.0,77,0.00,,,0.06,,2013-04-10 18:52:00,
2013-04-10 13:02:00,25.0,19.0,30.11,NNE,18,1.0,5.0,78,0.00,,,0.06,,2013-04-10 19:02:00,
2013-04-10 13:12:00,25.0,19.0,30.11,NNE,18,1.0,5.0,78,0.00,,,0.06,,2013-04-10 19:12:00,
2013-04-10 13:22:00,25.0,20.0,30.11,ENE,59,4.0,8.0,80,0.00,,,0.06,,2013-04-10 19:22:00,
2013-04-10 13:32:00,25.0,19.0,30.10,ENE,62,0.0,5.0,77,0.00,,,0.06,,2013-04-10 19:32:00,
2013-04-10 13:42:00,25.0,19.0,30.10,ENE,62,0.0,5.0,77,0.00,,,0.06,,2013-04-10 19:42:00,
2013-04-10 13:52:00,25.0,19.0,30.10,North,9,0.0,6.0,79,0.01,,,0.07,,2013-04-10 19:52:00,
2013-04-10 14:02:00,26.0,22.0,30.09,NW,311,1.0,6.0,83,0.02,,,0.08,,2013-04-10 20:02:00,
2013-04-10 14:12:00,26.0,22.0,30.09,NW,311,1.0,6.0,83,0.02,,,0.08,,2013-04-10 20:12:00,
2013-04-10 14:22:00,28.0,24.0,30.09,North,11,2.0,7.0,83,0.03,,,0.09,,2013-04-10 20:22:00,
2013-04-10 14:32:00,28.0,22.0,30.09,NE,38,2.0,7.0,79,0.04,,,0.10,,2013-04-10 20:32:00,
2013-04-10 14:42:00,28.0,22.0,30.09,NE,38,2.0,7.0,79,0.04,,,0.10,,2013-04-10 20:42:00,
2013-04-10 14:52:00,28.0,23.0,30.09,NNE,22,3.0,6.0,82,0.05,,,0.12,,2013-04-10 20:52:00,
2013-04-10 15:02:00,29.0,24.0,30.09,NNW,344,6.0,10.0,80,0.05,,,0.13,,2013-04-10 21:02:00,
2013-04-10 15:12:00,29.0,24.0,30.09,NNW,344,6.0,10.0,80,0.05,,,0.13,,2013-04-10 21:12:00,
2013-04-10 15:22:00,29.0,25.0,30.08,NNW,338,5.0,11.0,84,0.05,,,0.14,,2013-04-10 21:22:00,
2013-04-10 15:42:00,29.0,25.0,30.09,North,355,6.0,11.0,83,0.04,,,0.13,,2013-04-10 21:42:00,
2013-04-10 15:52:00,30.0,25.0,30.09,North,351,6.0,12.0,82,0.03,,,0.13,,2013-04-10 21:52:00,
2013-04-10 16:02:00,30.0,25.0,30.08,NW,323,7.0,11.0,80,0.04,,,0.15,,2013-04-10 22:02:00,
2013-04-10 16:12:00,30.0,25.0,30.08,NW,323,7.0,11.0,80,0.04,,,0.15,,2013-04-10 22:12:00,
2013-04-10 16:22:00,31.0,26.0,30.08,NNW,331,5.0,12.0,82,0.05,,,0.17,,2013-04-10 22:22:00,
2013-04-10 16:33:00,31.0,26.0,30.08,NNW,343,6.0,14.0,82,0.05,,,0.16,,2013-04-10 22:33:00,
2013-04-10 16:42:00,31.0,26.0,30.08,NNW,343,6.0,14.0,82,0.05,,,0.16,,2013-04-10 22:42:00,
2013-04-10 16:52:00,29.0,25.0,30.08,NNW,338,6.0,15.0,83,0.06,,,0.17,,2013-04-10 22:52:00,
2013-04-10 17:02:00,29.0,24.0,30.08,North,9,7.0,12.0,82,0.04,,,0.17,,2013-04-10 23:02:00,
2013-04-10 17:12:00,29.0,24.0,30.08,North,9,7.0,12.0,82,0.04,,,0.17,,2013-04-10 23:12:00,
2013-04-10 17:22:00,30.0,25.0,30.08,NNW,343,5.0,12.0,82,0.02,,,0.17,,2013-04-10 23:22:00,
2013-04-10 17:32:00,31.0,26.0,30.08,NNE,15,5.0,9.0,80,0.02,,,0.16,,2013-04-10 23:32:00,
2013-04-10 17:42:00,31.0,26.0,30.08,NNE,15,5.0,9.0,80,0.02,,,0.16,,2013-04-10 23:42:00,
2013-04-10 17:52:00,32.0,25.0,30.08,NNW,346,5.0,9.0,76,0.02,,,0.17,,2013-04-10 23:52:00,
2013-04-10 18:02:00,30.0,22.0,30.08,NNW,348,5.0,9.0,73,0.02,,,0.17,,2013-04-11 00:02:00,
2013-04-10 18:12:00,30.0,22.0,30.08,NNW,348,5.0,9.0,73,0.02,,,0.17,,2013-04-11 00:12:00,
2013-04-10 18:22:00,29.0,23.0,30.09,WNW,284,2.0,8.0,79,0.02,,,0.17,,2013-04-11 00:22:00,
2013-04-10 18:32:00,29.0,24.0,30.09,NNW,331,1.0,7.0,81,0.02,,,0.18,,2013-04-11 00:32:00,
2013-04-10 18:42:00,29.0,24.0,30.09,NNW,331,1.0,7.0,81,0.02,,,0.18,,2013-04-11 00:42:00,
2013-04-10 18:52:00,29.0,23.0,30.09,NNE,22,2.0,5.0,77,0.01,,,0.18,,2013-04-11 00:52:00,
2013-04-10 19:02:00,29.0,22.0,30.09,NNE,20,0.0,6.0,76,0.01,,,0.18,,2013-04-11 01:02:00,
2013-04-10 19:12:00,29.0,22.0,30.09,NNE,20,0.0,6.0,76,0.01,,,0.18,,2013-04-11 01:12:00,
2013-04-10 19:22:00,28.0,22.0,30.10,NNE,20,0.0,4.0,78,0.01,,,0.18,,2013-04-11 01:22:00,
2013-04-10 19:32:00,27.0,21.0,30.10,NNE,20,0.0,0.0,79,0.00,,,0.18,,2013-04-11 01:32:00,
2013-04-10 19:42:00,27.0,21.0,30.10,NNE,20,0.0,0.0,79,0.00,,,0.18,,2013-04-11 01:42:00,
2013-04-10 19:52:00,27.0,21.0,30.10,NNE,20,0.0,0.0,79,0.00,,,0.18,,2013-04-11 01:52:00,
2013-04-10 20:02:00,27.0,22.0,30.10,NNE,20,0.0,0.0,80,0.00,,,0.18,,2013-04-11 02:02:00,
2013-04-10 20:12:00,27.0,22.0,30.10,NNE,20,0.0,0.0,80,0.00,,,0.18,,2013-04-11 02:12:00,
2013-04-10 20:22:00,26.0,21.0,30.10,ENE,69,0.0,0.0,81,0.00,,,0.18,,2013-04-11 02:22:00,
2013-04-10 20:32:00,25.0,20.0,30.11,SE,143,1.0,3.0,81,0.00,,,0.18,,2013-04-11 02:32:00,
2013-04-10 20:42:00,25.0,20.0,30.11,SE,143,1.0,3.0,81,0.00,,,0.18,,2013-04-11 02:42:00,
2013-04-10 20:52:00,24.0,20.0,30.11,SE,145,1.0,4.0,83,0.00,,,0.18,,2013-04-11 02:52:00,
2013-04-10 21:02:00,24.0,20.0,30.11,SSE,167,1.0,4.0,84,0.00,,,0.18,,2013-04-11 03:02:00,
2013-04-10 21:12:00,24.0,20.0,30.11,SSE,167,1.0,4.0,84,0.00,,,0.18,,2013-04-11 03:12:00,
2013-04-10 21:22:00,23.0,19.0,30.11,SSE,151,3.0,5.0,86,0.00,,,0.18,,2013-04-11 03:22:00,
2013-04-10 21:33:00,23.0,19.0,30.11,SSE,151,3.0,5.0,86,0.00,,,0.18,,2013-04-11 03:33:00,
2013-04-10 21:43:00,23.0,19.0,30.11,SSE,151,3.0,5.0,86,0.00,,,0.18,,2013-04-11 03:43:00,
2013-04-10 22:03:00,23.0,19.0,30.12,South,183,4.0,9.0,85,0.00,,,0.18,,2013-04-11 04:03:00,
2013-04-10 22:12:00,23.0,19.0,30.11,SSE,165,2.0,7.0,84,0.00,,,0.18,,2013-04-11 04:12:00,
2013-04-10 22:22:00,23.0,19.0,30.11,SSE,165,2.0,7.0,84,0.00,,,0.18,,2013-04-11 04:22:00,
2013-04-10 22:33:00,23.0,19.0,30.11,South,171,6.0,10.0,83,0.00,,,0.18,,2013-04-11 04:33:00,
2013-04-10 22:42:00,23.0,19.0,30.11,South,171,6.0,10.0,83,0.00,,,0.18,,2013-04-11 04:42:00,
2013-04-10 22:52:00,23.0,18.0,30.11,South,174,5.0,10.0,82,0.00,,,0.18,,2013-04-11 04:52:00,
2013-04-10 23:02:00,23.0,18.0,30.11,SSE,156,3.0,7.0,81,0.00,,,0.18,,2013-04-11 05:02:00,
2013-04-10 23:12:00,23.0,18.0,30.11,SSE,156,3.0,7.0,81,0.00,,,0.18,,2013-04-11 05:12:00,
2013-04-10 23:22:00,22.0,17.0,30.11,SSE,161,5.0,8.0,80,0.00,,,0.18,,2013-04-11 05:22:00,
2013-04-10 23:32:00,22.0,17.0,30.11,SSW,195,5.0,13.0,81,0.00,,,0.18,,2013-04-11 05:32:00,
2013-04-10 23:42:00,22.0,17.0,30.11,SSW,195,5.0,13.0,81,0.00,,,0.18,,2013-04-11 05:42:00,
2013-04-10 23:52:00,23.0,18.0,30.11,South,178,5.0,9.0,81,0.00,,,0.18,,2013-04-11 05:52:00,